OOCL Nagoya — VRFX8 — position and weather

sailwx.info

Track history (hours):
 
Tides and Currents Weather Stations Pressure Air Temp Water Temp Dewpoint Dewpoint Depression Visibility Wind Speed Wind Dir Waves Ship Positions

OOCL Nagoya

Last reported at 2014-Oct-20 07:15 UTC. Time now 2014-Oct-21 03:59 UTC.
Position N 22°08' E 114°14'.

Length 261 m; draft 10.9 m.

Type: Cargo ship. MMSI: 477627900.

Date/timePositionNaut miles runAvg speedWind from/ knotsBaromVisibWave heightAir tempDewpointWater temp
2014-Oct-20 07:15N 22°08' E 114°14'912.3
2014-Oct-20 06:31N 22°15' E 114°07'1111.5
2014-Oct-20 05:32N 22°21' E 113°57'7 7.3
2014-Oct-20 04:33N 22°27' E 113°54'0 0.1
2014-Oct-20 03:32N 22°27' E 113°54'0 0.0
2014-Oct-20 02:32N 22°27' E 113°54'0 0.0
2014-Oct-20 01:29N 22°27' E 113°54'0 0.0
2014-Oct-20 00:32N 22°27' E 113°54'0 0.0
2014-Oct-19 23:29N 22°27' E 113°54'0 0.0
2014-Oct-19 22:29N 22°27' E 113°54'0 0.0
2014-Oct-19 21:29N 22°27' E 113°54'0 0.0
2014-Oct-19 20:29N 22°27' E 113°54'0 0.0
2014-Oct-19 19:29N 22°27' E 113°54'0 0.0
2014-Oct-19 18:29N 22°27' E 113°54'0 0.0
2014-Oct-19 17:29N 22°27' E 113°54'0 0.0
2014-Oct-19 16:29N 22°27' E 113°54'0 0.0
2014-Oct-19 15:29N 22°27' E 113°54'0 0.0
2014-Oct-19 14:29N 22°27' E 113°54'0 0.0
2014-Oct-19 13:33N 22°27' E 113°54'17 8.0
2014-Oct-19 11:25N 22°16' E 114°07'6917.9
2014-Oct-19 07:33N 22°14' E 115°22'26318.5
2014-Oct-18 17:19N 22°32' E 120°06'810.1
2014-Oct-18 16:30N 22°33' E 120°15'4 4.0
2014-Oct-18 15:32N 22°34' E 120°18'0 0.1
2014-Oct-18 13:20N 22°34' E 120°18'0 0.0
2014-Oct-18 10:20N 22°34' E 120°18'0 0.1
2014-Oct-18 09:32N 22°34' E 120°18'0 0.0
2014-Oct-18 08:32N 22°34' E 120°18'0 0.1
2014-Oct-18 07:26N 22°34' E 120°18'0 0.0
2014-Oct-18 06:26N 22°34' E 120°18'0 0.0
2014-Oct-18 04:11N 22°34' E 120°18'0 0.0
2014-Oct-18 03:30N 22°34' E 120°18'3 3.6
2014-Oct-18 02:33N 22°32' E 120°16'1 1.1
2014-Oct-18 01:29N 22°32' E 120°17'0 0.1
2014-Oct-18 00:29N 22°32' E 120°17'0 0.0
2014-Oct-17 23:29N 22°32' E 120°17'0 0.0
2014-Oct-17 22:29N 22°32' E 120°17'0 0.0
2014-Oct-17 21:29N 22°32' E 120°17'0 0.0
2014-Oct-17 20:23N 22°32' E 120°17'0 0.1
2014-Oct-17 19:29N 22°32' E 120°17'0 0.1
2014-Oct-17 18:29N 22°32' E 120°17'0 0.0
2014-Oct-17 17:29N 22°32' E 120°17'0 0.0
2014-Oct-17 16:29N 22°32' E 120°17'0 0.0
2014-Oct-17 15:29N 22°32' E 120°17'0 0.0
2014-Oct-17 14:17N 22°32' E 120°17'0 0.0
2014-Oct-17 13:29N 22°32' E 120°17'0 0.0
2014-Oct-17 12:23N 22°32' E 120°17'0 0.0
2014-Oct-17 11:29N 22°32' E 120°17'0 0.0
2014-Oct-17 10:29N 22°32' E 120°17'0 0.0
2014-Oct-17 09:29N 22°32' E 120°17'0 0.0
2014-Oct-17 08:29N 22°32' E 120°17'0 0.1
2014-Oct-17 07:29N 22°32' E 120°17'0 0.0
2014-Oct-17 06:23N 22°32' E 120°17'0 0.1
2014-Oct-17 05:23N 22°32' E 120°17'0 0.1
2014-Oct-17 04:29N 22°32' E 120°17'0 0.0
2014-Oct-17 03:23N 22°32' E 120°17'0 0.0
2014-Oct-17 02:29N 22°32' E 120°17'0 0.1
2014-Oct-17 01:29N 22°32' E 120°17'0 0.1
2014-Oct-17 00:29N 22°32' E 120°17'0 0.1
2014-Oct-16 23:29N 22°32' E 120°17'0 0.0
2014-Oct-16 22:29N 22°32' E 120°17'0 0.0
2014-Oct-16 21:23N 22°32' E 120°17'0 0.0
2014-Oct-16 20:29N 22°32' E 120°17'0 0.1
2014-Oct-16 19:29N 22°32' E 120°17'0 0.1
2014-Oct-16 18:29N 22°32' E 120°17'0 0.1
2014-Oct-16 17:23N 22°32' E 120°17'0 0.0
2014-Oct-16 16:29N 22°32' E 120°17'0 0.1
2014-Oct-16 15:29N 22°32' E 120°17'0 0.1
2014-Oct-16 14:23N 22°32' E 120°17'0 0.1
2014-Oct-16 13:29N 22°32' E 120°17'0 0.0
2014-Oct-16 12:29N 22°32' E 120°17'0 0.0
2014-Oct-16 11:29N 22°32' E 120°17'0 0.0
2014-Oct-16 10:29N 22°32' E 120°17'0 0.1
2014-Oct-16 09:29N 22°32' E 120°17'0 0.1
2014-Oct-16 08:29N 22°32' E 120°17'0 0.1
2014-Oct-16 07:29N 22°32' E 120°17'0 0.1
2014-Oct-16 06:17N 22°32' E 120°17'0 0.1
2014-Oct-16 05:29N 22°32' E 120°17'0 0.1
2014-Oct-16 04:29N 22°32' E 120°17'0 0.1
2014-Oct-16 03:23N 22°32' E 120°17'0 0.0
2014-Oct-16 02:29N 22°32' E 120°17'0 0.1
2014-Oct-16 01:29N 22°32' E 120°17'0 0.1
2014-Oct-16 00:29N 22°32' E 120°17'0 0.0
2014-Oct-15 23:29N 22°32' E 120°17'0 0.0
2014-Oct-15 22:29N 22°32' E 120°17'0 0.0
2014-Oct-15 21:23N 22°32' E 120°17'0 0.0
2014-Oct-15 20:29N 22°32' E 120°17'0 0.0
2014-Oct-15 19:29N 22°32' E 120°17'0 0.1
2014-Oct-15 18:29N 22°32' E 120°17'0 0.2
2014-Oct-15 17:29N 22°32' E 120°17'0 0.1
2014-Oct-15 16:29N 22°32' E 120°17'0 0.0
2014-Oct-15 15:23N 22°32' E 120°17'0 0.0
2014-Oct-15 14:23N 22°32' E 120°17'0 0.0
2014-Oct-15 13:29N 22°32' E 120°17'0 0.0
2014-Oct-15 12:29N 22°32' E 120°17'0 0.0
2014-Oct-15 11:29N 22°32' E 120°17'0 0.1
2014-Oct-15 10:29N 22°32' E 120°17'0 0.1
2014-Oct-15 09:29N 22°32' E 120°17'0 0.1
2014-Oct-15 08:29N 22°32' E 120°17'0 0.1
2014-Oct-15 07:29N 22°32' E 120°17'0 0.1
2014-Oct-15 06:29N 22°32' E 120°17'0 0.0
2014-Oct-15 05:29N 22°32' E 120°17'1 1.5
2014-Oct-15 04:33N 22°32' E 120°16'6 6.1
2014-Oct-15 03:33N 22°27' E 120°12'7 6.8
2014-Oct-15 02:34N 22°33' E 120°16'  
Track history (hours):
 
Tides and Currents Weather Stations Pressure Air Temp Water Temp Dewpoint Dewpoint Depression Visibility Wind Speed Wind Dir Waves Ship Positions

OOCL Nagoya

Last reported at 2014-Oct-20 07:15 UTC. Time now 2014-Oct-21 03:59 UTC.
Position N 22°08' E 114°14'.

Length 261 m; draft 10.9 m.

Type: Cargo ship. MMSI: 477627900.

Date/timePositionNaut miles runAvg speedWind from/ knotsBaromVisibWave heightAir tempDewpointWater temp
2014-Oct-20 07:15N 22°08' E 114°14'912.3
2014-Oct-20 06:31N 22°15' E 114°07'1111.5
2014-Oct-20 05:32N 22°21' E 113°57'7 7.3
2014-Oct-20 04:33N 22°27' E 113°54'0 0.1
2014-Oct-20 03:32N 22°27' E 113°54'0 0.0
2014-Oct-20 02:32N 22°27' E 113°54'0 0.0
2014-Oct-20 01:29N 22°27' E 113°54'0 0.0
2014-Oct-20 00:32N 22°27' E 113°54'0 0.0
2014-Oct-19 23:29N 22°27' E 113°54'0 0.0
2014-Oct-19 22:29N 22°27' E 113°54'0 0.0
2014-Oct-19 21:29N 22°27' E 113°54'0 0.0
2014-Oct-19 20:29N 22°27' E 113°54'0 0.0
2014-Oct-19 19:29N 22°27' E 113°54'0 0.0
2014-Oct-19 18:29N 22°27' E 113°54'0 0.0
2014-Oct-19 17:29N 22°27' E 113°54'0 0.0
2014-Oct-19 16:29N 22°27' E 113°54'0 0.0
2014-Oct-19 15:29N 22°27' E 113°54'0 0.0
2014-Oct-19 14:29N 22°27' E 113°54'0 0.0
2014-Oct-19 13:33N 22°27' E 113°54'17 8.0
2014-Oct-19 11:25N 22°16' E 114°07'6917.9
2014-Oct-19 07:33N 22°14' E 115°22'26318.5
2014-Oct-18 17:19N 22°32' E 120°06'810.1
2014-Oct-18 16:30N 22°33' E 120°15'4 4.0
2014-Oct-18 15:32N 22°34' E 120°18'0 0.1
2014-Oct-18 13:20N 22°34' E 120°18'0 0.0
2014-Oct-18 10:20N 22°34' E 120°18'0 0.1
2014-Oct-18 09:32N 22°34' E 120°18'0 0.0
2014-Oct-18 08:32N 22°34' E 120°18'0 0.1
2014-Oct-18 07:26N 22°34' E 120°18'0 0.0
2014-Oct-18 06:26N 22°34' E 120°18'0 0.0
2014-Oct-18 04:11N 22°34' E 120°18'0 0.0
2014-Oct-18 03:30N 22°34' E 120°18'3 3.6
2014-Oct-18 02:33N 22°32' E 120°16'1 1.1
2014-Oct-18 01:29N 22°32' E 120°17'0 0.1
2014-Oct-18 00:29N 22°32' E 120°17'0 0.0
2014-Oct-17 23:29N 22°32' E 120°17'0 0.0
2014-Oct-17 22:29N 22°32' E 120°17'0 0.0
2014-Oct-17 21:29N 22°32' E 120°17'0 0.0
2014-Oct-17 20:23N 22°32' E 120°17'0 0.1
2014-Oct-17 19:29N 22°32' E 120°17'0 0.1
2014-Oct-17 18:29N 22°32' E 120°17'0 0.0
2014-Oct-17 17:29N 22°32' E 120°17'0 0.0
2014-Oct-17 16:29N 22°32' E 120°17'0 0.0
2014-Oct-17 15:29N 22°32' E 120°17'0 0.0
2014-Oct-17 14:17N 22°32' E 120°17'0 0.0
2014-Oct-17 13:29N 22°32' E 120°17'0 0.0
2014-Oct-17 12:23N 22°32' E 120°17'0 0.0
2014-Oct-17 11:29N 22°32' E 120°17'0 0.0
2014-Oct-17 10:29N 22°32' E 120°17'0 0.0
2014-Oct-17 09:29N 22°32' E 120°17'0 0.0
2014-Oct-17 08:29N 22°32' E 120°17'0 0.1
2014-Oct-17 07:29N 22°32' E 120°17'0 0.0
2014-Oct-17 06:23N 22°32' E 120°17'0 0.1
2014-Oct-17 05:23N 22°32' E 120°17'0 0.1
2014-Oct-17 04:29N 22°32' E 120°17'0 0.0
2014-Oct-17 03:23N 22°32' E 120°17'0 0.0
2014-Oct-17 02:29N 22°32' E 120°17'0 0.1
2014-Oct-17 01:29N 22°32' E 120°17'0 0.1
2014-Oct-17 00:29N 22°32' E 120°17'0 0.1
2014-Oct-16 23:29N 22°32' E 120°17'0 0.0
2014-Oct-16 22:29N 22°32' E 120°17'0 0.0
2014-Oct-16 21:23N 22°32' E 120°17'0 0.0
2014-Oct-16 20:29N 22°32' E 120°17'0 0.1
2014-Oct-16 19:29N 22°32' E 120°17'0 0.1
2014-Oct-16 18:29N 22°32' E 120°17'0 0.1
2014-Oct-16 17:23N 22°32' E 120°17'0 0.0
2014-Oct-16 16:29N 22°32' E 120°17'0 0.1
2014-Oct-16 15:29N 22°32' E 120°17'0 0.1
2014-Oct-16 14:23N 22°32' E 120°17'0 0.1
2014-Oct-16 13:29N 22°32' E 120°17'0 0.0
2014-Oct-16 12:29N 22°32' E 120°17'0 0.0
2014-Oct-16 11:29N 22°32' E 120°17'0 0.0
2014-Oct-16 10:29N 22°32' E 120°17'0 0.1
2014-Oct-16 09:29N 22°32' E 120°17'0 0.1
2014-Oct-16 08:29N 22°32' E 120°17'0 0.1
2014-Oct-16 07:29N 22°32' E 120°17'0 0.1
2014-Oct-16 06:17N 22°32' E 120°17'0 0.1
2014-Oct-16 05:29N 22°32' E 120°17'0 0.1
2014-Oct-16 04:29N 22°32' E 120°17'0 0.1
2014-Oct-16 03:23N 22°32' E 120°17'0 0.0
2014-Oct-16 02:29N 22°32' E 120°17'0 0.1
2014-Oct-16 01:29N 22°32' E 120°17'0 0.1
2014-Oct-16 00:29N 22°32' E 120°17'0 0.0
2014-Oct-15 23:29N 22°32' E 120°17'0 0.0
2014-Oct-15 22:29N 22°32' E 120°17'0 0.0
2014-Oct-15 21:23N 22°32' E 120°17'0 0.0
2014-Oct-15 20:29N 22°32' E 120°17'0 0.0
2014-Oct-15 19:29N 22°32' E 120°17'0 0.1
2014-Oct-15 18:29N 22°32' E 120°17'0 0.2
2014-Oct-15 17:29N 22°32' E 120°17'0 0.1
2014-Oct-15 16:29N 22°32' E 120°17'0 0.0
2014-Oct-15 15:23N 22°32' E 120°17'0 0.0
2014-Oct-15 14:23N 22°32' E 120°17'0 0.0
2014-Oct-15 13:29N 22°32' E 120°17'0 0.0
2014-Oct-15 12:29N 22°32' E 120°17'0 0.0
2014-Oct-15 11:29N 22°32' E 120°17'0 0.1
2014-Oct-15 10:29N 22°32' E 120°17'0 0.1
2014-Oct-15 09:29N 22°32' E 120°17'0 0.1
2014-Oct-15 08:29N 22°32' E 120°17'0 0.1
2014-Oct-15 07:29N 22°32' E 120°17'0 0.1
2014-Oct-15 06:29N 22°32' E 120°17'0 0.0
2014-Oct-15 05:29N 22°32' E 120°17'1 1.5
2014-Oct-15 04:33N 22°32' E 120°16'6 6.1
2014-Oct-15 03:33N 22°27' E 120°12'7 6.8
2014-Oct-15 02:34N 22°33' E 120°16'  

Dump ship's entire track history